sensor_id;sensor_type;location;lat;lon;timestamp;pressure;altitude;pressure_sealevel;temperature;humidity
36502;BME280;25393;46.108;3.390;2022-08-01T00:00:40;98154.81;;;21.05;60.10
36502;BME280;25393;46.108;3.390;2022-08-01T00:03:24;98159.28;;;21.11;60.19
36502;BME280;25393;46.108;3.390;2022-08-01T00:05:51;98126.44;;;20.91;60.16
36502;BME280;25393;46.108;3.390;2022-08-01T00:08:18;98142.03;;;21.01;60.18
36502;BME280;25393;46.108;3.390;2022-08-01T00:10:45;98136.19;;;20.92;60.37
36502;BME280;25393;46.108;3.390;2022-08-01T00:13:12;98172.69;;;21.18;60.54
36502;BME280;25393;46.108;3.390;2022-08-01T00:15:39;98132.28;;;20.88;60.40
36502;BME280;25393;46.108;3.390;2022-08-01T00:18:19;98123.63;;;20.86;60.72
36502;BME280;25393;46.108;3.390;2022-08-01T00:20:46;98172.53;;;21.13;60.79
36502;BME280;25393;46.108;3.390;2022-08-01T00:23:13;98146.00;;;20.98;60.31
36502;BME280;25393;46.108;3.390;2022-08-01T00:25:40;98151.72;;;20.90;60.47
36502;BME280;25393;46.108;3.390;2022-08-01T00:28:07;98135.78;;;20.77;60.91
36502;BME280;25393;46.108;3.390;2022-08-01T00:30:37;98141.16;;;20.77;61.45
36502;BME280;25393;46.108;3.390;2022-08-01T00:33:06;98132.47;;;20.63;61.53
36502;BME280;25393;46.108;3.390;2022-08-01T00:35:33;98179.50;;;20.90;61.18
36502;BME280;25393;46.108;3.390;2022-08-01T00:38:00;98132.13;;;20.60;61.22
36502;BME280;25393;46.108;3.390;2022-08-01T00:40:27;98168.34;;;20.75;61.67
36502;BME280;25393;46.108;3.390;2022-08-01T00:42:54;98148.53;;;20.58;61.81
36502;BME280;25393;46.108;3.390;2022-08-01T00:45:21;98147.44;;;20.59;61.69
36502;BME280;25393;46.108;3.390;2022-08-01T00:47:48;98126.56;;;20.43;61.81
36502;BME280;25393;46.108;3.390;2022-08-01T00:50:20;98146.50;;;20.54;61.23
36502;BME280;25393;46.108;3.390;2022-08-01T00:52:50;98126.44;;;20.38;61.35
36502;BME280;25393;46.108;3.390;2022-08-01T00:55:18;98120.94;;;20.33;60.98
36502;BME280;25393;46.108;3.390;2022-08-01T00:57:46;98140.50;;;20.40;61.74
36502;BME280;25393;46.108;3.390;2022-08-01T01:00:32;98115.41;;;20.10;62.61
36502;BME280;25393;46.108;3.390;2022-08-01T01:03:19;98154.63;;;20.35;62.76
36502;BME280;25393;46.108;3.390;2022-08-01T01:14:41;98128.28;;;20.08;63.79
36502;BME280;25393;46.108;3.390;2022-08-01T01:17:16;98125.69;;;20.01;63.93
36502;BME280;25393;46.108;3.390;2022-08-01T01:20:05;98133.22;;;19.92;64.15
36502;BME280;25393;46.108;3.390;2022-08-01T01:22:53;98148.22;;;20.00;64.14
36502;BME280;25393;46.108;3.390;2022-08-01T01:28:17;98165.78;;;20.03;65.46
36502;BME280;25393;46.108;3.390;2022-08-01T01:30:51;98162.63;;;20.06;65.54
36502;BME280;25393;46.108;3.390;2022-08-01T01:33:21;98120.78;;;19.80;65.35
36502;BME280;25393;46.108;3.390;2022-08-01T01:35:53;98128.84;;;19.80;65.67
36502;BME280;25393;46.108;3.390;2022-08-01T01:38:27;98134.34;;;19.85;65.49
36502;BME280;25393;46.108;3.390;2022-08-01T01:40:55;98125.06;;;19.81;65.32
36502;BME280;25393;46.108;3.390;2022-08-01T01:43:24;98108.75;;;19.64;65.97
36502;BME280;25393;46.108;3.390;2022-08-01T01:45:59;98150.63;;;19.90;66.05
36502;BME280;25393;46.108;3.390;2022-08-01T01:48:27;98116.34;;;19.67;66.09
36502;BME280;25393;46.108;3.390;2022-08-01T01:50:56;98129.94;;;19.72;66.54
36502;BME280;25393;46.108;3.390;2022-08-01T01:53:24;98103.91;;;19.55;66.79
36502;BME280;25393;46.108;3.390;2022-08-01T01:55:55;98102.13;;;19.49;66.66
36502;BME280;25393;46.108;3.390;2022-08-01T01:58:25;98119.19;;;19.54;66.42
36502;BME280;25393;46.108;3.390;2022-08-01T02:00:55;98107.75;;;19.40;67.45
36502;BME280;25393;46.108;3.390;2022-08-01T02:03:23;98096.91;;;19.29;68.33
36502;BME280;25393;46.108;3.390;2022-08-01T02:05:53;98118.78;;;19.32;68.72
36502;BME280;25393;46.108;3.390;2022-08-01T02:08:21;98112.63;;;19.25;69.11
36502;BME280;25393;46.108;3.390;2022-08-01T02:10:51;98111.59;;;19.26;69.04
36502;BME280;25393;46.108;3.390;2022-08-01T02:14:01;98095.84;;;19.12;68.17
36502;BME280;25393;46.108;3.390;2022-08-01T02:16:33;98095.47;;;19.08;68.71
36502;BME280;25393;46.108;3.390;2022-08-01T02:19:02;98106.81;;;19.10;68.59
36502;BME280;25393;46.108;3.390;2022-08-01T02:21:35;98103.75;;;19.07;68.78
36502;BME280;25393;46.108;3.390;2022-08-01T02:24:14;98142.75;;;19.34;68.79
36502;BME280;25393;46.108;3.390;2022-08-01T02:26:49;98123.19;;;19.27;68.72
36502;BME280;25393;46.108;3.390;2022-08-01T02:29:22;98115.19;;;19.20;68.64
36502;BME280;25393;46.108;3.390;2022-08-01T02:31:53;98101.72;;;19.02;69.12
36502;BME280;25393;46.108;3.390;2022-08-01T02:34:22;98101.09;;;19.00;69.04
36502;BME280;25393;46.108;3.390;2022-08-01T02:36:52;98106.53;;;18.93;70.04
36502;BME280;25393;46.108;3.390;2022-08-01T02:39:22;98116.03;;;18.96;69.91
36502;BME280;25393;46.108;3.390;2022-08-01T02:41:55;98116.69;;;18.91;69.97
36502;BME280;25393;46.108;3.390;2022-08-01T02:44:27;98107.47;;;18.81;69.80
36502;BME280;25393;46.108;3.390;2022-08-01T02:47:00;98102.16;;;18.74;70.26
36502;BME280;25393;46.108;3.390;2022-08-01T02:49:34;98096.56;;;18.76;71.19
36502;BME280;25393;46.108;3.390;2022-08-01T02:52:05;98095.53;;;18.77;71.59
36502;BME280;25393;46.108;3.390;2022-08-01T02:54:37;98121.28;;;18.84;72.21
36502;BME280;25393;46.108;3.390;2022-08-01T02:57:06;98096.41;;;18.71;72.32
36502;BME280;25393;46.108;3.390;2022-08-01T02:59:37;98096.38;;;18.77;72.55
36502;BME280;25393;46.108;3.390;2022-08-01T03:02:08;98089.41;;;18.70;73.04
36502;BME280;25393;46.108;3.390;2022-08-01T03:04:38;98079.97;;;18.61;72.93
36502;BME280;25393;46.108;3.390;2022-08-01T03:07:07;98110.22;;;18.74;73.21
36502;BME280;25393;46.108;3.390;2022-08-01T03:09:38;98096.88;;;18.68;73.49
36502;BME280;25393;46.108;3.390;2022-08-01T03:12:11;98074.44;;;18.56;73.26
36502;BME280;25393;46.108;3.390;2022-08-01T03:14:42;98074.00;;;18.59;72.60
36502;BME280;25393;46.108;3.390;2022-08-01T03:17:09;98086.19;;;18.55;72.21
36502;BME280;25393;46.108;3.390;2022-08-01T03:19:39;98068.72;;;18.45;72.33
36502;BME280;25393;46.108;3.390;2022-08-01T03:22:08;98089.91;;;18.60;71.48
36502;BME280;25393;46.108;3.390;2022-08-01T03:24:39;98064.97;;;18.53;72.54
36502;BME280;25393;46.108;3.390;2022-08-01T03:27:08;98102.22;;;18.68;72.01
36502;BME280;25393;46.108;3.390;2022-08-01T03:29:38;98079.25;;;18.40;72.10
36502;BME280;25393;46.108;3.390;2022-08-01T03:32:06;98060.09;;;18.37;71.68
36502;BME280;25393;46.108;3.390;2022-08-01T03:34:34;98096.16;;;18.54;72.48
36502;BME280;25393;46.108;3.390;2022-08-01T03:37:36;98059.38;;;18.55;73.55
36502;BME280;25393;46.108;3.390;2022-08-01T03:40:31;98073.88;;;18.72;72.40
36502;BME280;25393;46.108;3.390;2022-08-01T03:43:04;98057.34;;;18.75;72.13
36502;BME280;25393;46.108;3.390;2022-08-01T03:45:35;98081.72;;;18.73;72.33
36502;BME280;25393;46.108;3.390;2022-08-01T03:48:10;98082.28;;;18.82;72.49
36502;BME280;25393;46.108;3.390;2022-08-01T03:50:43;98074.13;;;18.70;71.79
36502;BME280;25393;46.108;3.390;2022-08-01T03:53:15;98062.44;;;18.58;72.05
36502;BME280;25393;46.108;3.390;2022-08-01T03:55:48;98076.09;;;18.57;72.80
36502;BME280;25393;46.108;3.390;2022-08-01T03:58:19;98069.53;;;18.46;73.20
36502;BME280;25393;46.108;3.390;2022-08-01T04:00:50;98066.47;;;18.42;73.12
36502;BME280;25393;46.108;3.390;2022-08-01T04:03:17;98072.66;;;18.43;73.36
36502;BME280;25393;46.108;3.390;2022-08-01T04:05:45;98071.81;;;18.42;71.75
36502;BME280;25393;46.108;3.390;2022-08-01T04:08:14;98074.00;;;18.27;71.34
36502;BME280;25393;46.108;3.390;2022-08-01T04:10:41;98073.91;;;18.09;72.33
36502;BME280;25393;46.108;3.390;2022-08-01T04:13:08;98088.75;;;18.05;73.09
36502;BME280;25393;46.108;3.390;2022-08-01T04:15:35;98099.34;;;18.00;73.62
36502;BME280;25393;46.108;3.390;2022-08-01T04:18:02;98108.81;;;18.03;73.98
36502;BME280;25393;46.108;3.390;2022-08-01T04:20:29;98114.16;;;18.03;73.73
36502;BME280;25393;46.108;3.390;2022-08-01T04:22:56;98105.13;;;17.97;74.47
36502;BME280;25393;46.108;3.390;2022-08-01T04:25:31;98123.59;;;18.18;75.65
36502;BME280;25393;46.108;3.390;2022-08-01T04:28:01;98107.53;;;18.05;75.83
36502;BME280;25393;46.108;3.390;2022-08-01T04:30:33;98119.88;;;18.13;76.66
36502;BME280;25393;46.108;3.390;2022-08-01T04:33:04;98119.75;;;18.01;76.18
36502;BME280;25393;46.108;3.390;2022-08-01T04:35:33;98101.59;;;17.59;78.10
36502;BME280;25393;46.108;3.390;2022-08-01T04:38:25;98134.09;;;17.75;78.59
36502;BME280;25393;46.108;3.390;2022-08-01T04:40:56;98144.94;;;17.93;79.02
36502;BME280;25393;46.108;3.390;2022-08-01T04:43:23;98134.75;;;18.09;76.85
36502;BME280;25393;46.108;3.390;2022-08-01T04:45:50;98147.03;;;18.67;74.90
36502;BME280;25393;46.108;3.390;2022-08-01T04:48:18;98130.22;;;18.54;74.94
36502;BME280;25393;46.108;3.390;2022-08-01T04:50:48;98136.69;;;18.71;75.18
36502;BME280;25393;46.108;3.390;2022-08-01T04:53:16;98133.31;;;18.51;75.45
36502;BME280;25393;46.108;3.390;2022-08-01T04:55:44;98150.91;;;18.40;75.98
36502;BME280;25393;46.108;3.390;2022-08-01T04:58:15;98154.88;;;18.31;76.28
36502;BME280;25393;46.108;3.390;2022-08-01T05:00:44;98134.50;;;18.17;76.18
36502;BME280;25393;46.108;3.390;2022-08-01T05:03:11;98153.44;;;18.28;76.07
36502;BME280;25393;46.108;3.390;2022-08-01T05:05:37;98157.75;;;18.36;75.76
36502;BME280;25393;46.108;3.390;2022-08-01T05:08:04;98143.34;;;18.24;75.79
36502;BME280;25393;46.108;3.390;2022-08-01T05:10:33;98159.63;;;18.29;76.22
36502;BME280;25393;46.108;3.390;2022-08-01T05:13:00;98162.00;;;18.50;75.76
36502;BME280;25393;46.108;3.390;2022-08-01T05:15:27;98172.53;;;18.52;75.92
36502;BME280;25393;46.108;3.390;2022-08-01T05:17:54;98167.50;;;18.62;75.93
36502;BME280;25393;46.108;3.390;2022-08-01T05:20:20;98167.06;;;18.65;76.14
36502;BME280;25393;46.108;3.390;2022-08-01T05:22:47;98147.53;;;18.58;75.62
36502;BME280;25393;46.108;3.390;2022-08-01T05:25:14;98170.97;;;18.69;75.64
36502;BME280;25393;46.108;3.390;2022-08-01T05:27:46;98169.06;;;18.76;75.46
36502;BME280;25393;46.108;3.390;2022-08-01T05:30:17;98158.38;;;18.69;75.74
36502;BME280;25393;46.108;3.390;2022-08-01T05:32:44;98161.69;;;18.71;75.89
36502;BME280;25393;46.108;3.390;2022-08-01T05:35:11;98158.09;;;18.77;75.58
36502;BME280;25393;46.108;3.390;2022-08-01T05:37:38;98135.72;;;18.59;76.08
36502;BME280;25393;46.108;3.390;2022-08-01T05:40:05;98155.88;;;18.99;74.96
36502;BME280;25393;46.108;3.390;2022-08-01T05:42:32;98169.00;;;19.07;75.30
36502;BME280;25393;46.108;3.390;2022-08-01T05:44:59;98149.41;;;19.07;74.78
36502;BME280;25393;46.108;3.390;2022-08-01T05:47:26;98152.31;;;19.05;74.71
36502;BME280;25393;46.108;3.390;2022-08-01T05:49:52;98166.88;;;19.16;74.57
36502;BME280;25393;46.108;3.390;2022-08-01T05:52:19;98170.53;;;18.96;74.92
36502;BME280;25393;46.108;3.390;2022-08-01T05:54:46;98179.09;;;18.56;77.91
36502;BME280;25393;46.108;3.390;2022-08-01T05:57:15;98186.09;;;18.12;81.15
36502;BME280;25393;46.108;3.390;2022-08-01T05:59:45;98178.13;;;17.99;83.19
36502;BME280;25393;46.108;3.390;2022-08-01T06:02:12;98187.34;;;18.16;82.44
36502;BME280;25393;46.108;3.390;2022-08-01T06:04:39;98188.38;;;18.15;82.81
36502;BME280;25393;46.108;3.390;2022-08-01T06:07:06;98187.22;;;17.91;85.79
36502;BME280;25393;46.108;3.390;2022-08-01T06:09:32;98184.41;;;18.24;83.83
36502;BME280;25393;46.108;3.390;2022-08-01T06:11:59;98184.69;;;18.47;82.05
36502;BME280;25393;46.108;3.390;2022-08-01T06:14:25;98191.09;;;18.53;83.74
36502;BME280;25393;46.108;3.390;2022-08-01T06:16:52;98192.31;;;18.57;83.65
36502;BME280;25393;46.108;3.390;2022-08-01T06:19:18;98190.88;;;18.55;84.65
36502;BME280;25393;46.108;3.390;2022-08-01T06:21:45;98189.84;;;18.56;84.60
36502;BME280;25393;46.108;3.390;2022-08-01T06:24:12;98189.31;;;18.72;84.02
36502;BME280;25393;46.108;3.390;2022-08-01T06:26:39;98191.59;;;18.75;83.01
36502;BME280;25393;46.108;3.390;2022-08-01T06:29:05;98192.09;;;18.90;82.61
36502;BME280;25393;46.108;3.390;2022-08-01T06:31:35;98190.88;;;18.86;83.07
36502;BME280;25393;46.108;3.390;2022-08-01T06:34:01;98191.50;;;19.13;81.86
36502;BME280;25393;46.108;3.390;2022-08-01T06:36:28;98193.03;;;19.27;82.17
36502;BME280;25393;46.108;3.390;2022-08-01T06:38:54;98191.00;;;19.47;79.21
36502;BME280;25393;46.108;3.390;2022-08-01T06:41:21;98180.94;;;19.61;78.95
36502;BME280;25393;46.108;3.390;2022-08-01T06:43:48;98186.63;;;19.71;77.06
36502;BME280;25393;46.108;3.390;2022-08-01T06:46:14;98190.81;;;20.03;76.25
36502;BME280;25393;46.108;3.390;2022-08-01T06:48:41;98185.78;;;20.25;75.20
36502;BME280;25393;46.108;3.390;2022-08-01T06:51:08;98183.75;;;20.57;73.33
36502;BME280;25393;46.108;3.390;2022-08-01T06:53:36;98185.34;;;20.87;72.81
36502;BME280;25393;46.108;3.390;2022-08-01T06:56:04;98190.63;;;20.94;71.96
36502;BME280;25393;46.108;3.390;2022-08-01T06:58:31;98191.13;;;21.03;71.60
36502;BME280;25393;46.108;3.390;2022-08-01T07:00:58;98180.19;;;21.39;69.62
36502;BME280;25393;46.108;3.390;2022-08-01T07:03:25;98182.53;;;21.59;68.65
36502;BME280;25393;46.108;3.390;2022-08-01T07:06:12;98180.75;;;21.76;66.93
36502;BME280;25393;46.108;3.390;2022-08-01T07:08:40;98183.31;;;21.94;66.67
36502;BME280;25393;46.108;3.390;2022-08-01T07:11:07;98172.63;;;22.39;65.05
36502;BME280;25393;46.108;3.390;2022-08-01T07:13:34;98173.00;;;22.59;63.41
36502;BME280;25393;46.108;3.390;2022-08-01T07:16:09;98173.31;;;22.74;62.04
36502;BME280;25393;46.108;3.390;2022-08-01T07:18:36;98172.84;;;22.94;60.78
36502;BME280;25393;46.108;3.390;2022-08-01T07:21:02;98177.19;;;23.12;60.61
36502;BME280;25393;46.108;3.390;2022-08-01T07:23:30;98168.88;;;23.47;58.92
36502;BME280;25393;46.108;3.390;2022-08-01T07:26:03;98175.84;;;23.81;57.07
36502;BME280;25393;46.108;3.390;2022-08-01T07:28:30;98182.91;;;24.20;57.23
36502;BME280;25393;46.108;3.390;2022-08-01T07:30:57;98181.56;;;24.23;56.45
36502;BME280;25393;46.108;3.390;2022-08-01T07:33:23;98176.09;;;24.66;55.49
36502;BME280;25393;46.108;3.390;2022-08-01T07:35:50;98178.47;;;25.16;54.06
36502;BME280;25393;46.108;3.390;2022-08-01T07:38:19;98173.44;;;25.67;52.77
36502;BME280;25393;46.108;3.390;2022-08-01T07:40:49;98173.91;;;26.06;51.61
36502;BME280;25393;46.108;3.390;2022-08-01T07:43:15;98176.28;;;26.49;50.98
36502;BME280;25393;46.108;3.390;2022-08-01T07:45:44;98170.66;;;26.86;49.97
36502;BME280;25393;46.108;3.390;2022-08-01T07:48:12;98159.81;;;27.06;48.35
36502;BME280;25393;46.108;3.390;2022-08-01T07:50:38;98153.28;;;27.17;46.94
36502;BME280;25393;46.108;3.390;2022-08-01T07:53:05;98161.97;;;27.40;45.82
36502;BME280;25393;46.108;3.390;2022-08-01T07:55:32;98160.66;;;27.47;46.32
36502;BME280;25393;46.108;3.390;2022-08-01T07:57:58;98154.34;;;27.67;46.91
36502;BME280;25393;46.108;3.390;2022-08-01T08:00:34;98158.56;;;28.13;46.21
36502;BME280;25393;46.108;3.390;2022-08-01T08:03:01;98160.56;;;28.52;44.85
36502;BME280;25393;46.108;3.390;2022-08-01T08:05:28;98161.78;;;28.80;44.75
36502;BME280;25393;46.108;3.390;2022-08-01T08:08:14;98158.22;;;29.18;43.47
36502;BME280;25393;46.108;3.390;2022-08-01T08:10:43;98141.16;;;29.36;42.56
36502;BME280;25393;46.108;3.390;2022-08-01T08:13:10;98139.53;;;29.35;40.96
36502;BME280;25393;46.108;3.390;2022-08-01T08:15:37;98159.66;;;29.44;40.85
36502;BME280;25393;46.108;3.390;2022-08-01T08:18:04;98154.97;;;29.50;40.81
36502;BME280;25393;46.108;3.390;2022-08-01T08:20:30;98150.03;;;29.52;40.54
36502;BME280;25393;46.108;3.390;2022-08-01T08:22:57;98156.16;;;29.39;42.18
36502;BME280;25393;46.108;3.390;2022-08-01T08:25:25;98156.66;;;29.07;41.45
36502;BME280;25393;46.108;3.390;2022-08-01T08:27:52;98155.41;;;28.94;41.81
36502;BME280;25393;46.108;3.390;2022-08-01T08:30:19;98159.28;;;29.27;42.04
36502;BME280;25393;46.108;3.390;2022-08-01T08:32:47;98145.47;;;29.71;41.48
36502;BME280;25393;46.108;3.390;2022-08-01T08:35:14;98151.75;;;30.19;40.97
36502;BME280;25393;46.108;3.390;2022-08-01T08:37:48;98134.66;;;30.51;38.78
36502;BME280;25393;46.108;3.390;2022-08-01T08:40:15;98149.44;;;30.68;37.79
36502;BME280;25393;46.108;3.390;2022-08-01T08:42:44;98137.91;;;30.90;38.59
36502;BME280;25393;46.108;3.390;2022-08-01T08:45:13;98149.31;;;31.16;36.98
36502;BME280;25393;46.108;3.390;2022-08-01T08:47:41;98153.81;;;30.88;38.34
36502;BME280;25393;46.108;3.390;2022-08-01T08:50:09;98154.38;;;31.23;38.12
36502;BME280;25393;46.108;3.390;2022-08-01T08:52:37;98148.09;;;31.22;36.89
36502;BME280;25393;46.108;3.390;2022-08-01T08:55:05;98137.22;;;31.03;37.41
36502;BME280;25393;46.108;3.390;2022-08-01T08:57:32;98154.69;;;31.53;36.91
36502;BME280;25393;46.108;3.390;2022-08-01T08:59:59;98135.03;;;31.65;36.34
36502;BME280;25393;46.108;3.390;2022-08-01T09:02:26;98142.28;;;32.02;35.85
36502;BME280;25393;46.108;3.390;2022-08-01T09:04:53;98134.56;;;32.04;35.12
36502;BME280;25393;46.108;3.390;2022-08-01T09:07:20;98147.53;;;31.71;35.11
36502;BME280;25393;46.108;3.390;2022-08-01T09:09:49;98155.44;;;31.86;35.66
36502;BME280;25393;46.108;3.390;2022-08-01T09:12:18;98148.56;;;31.43;35.45
36502;BME280;25393;46.108;3.390;2022-08-01T09:14:46;98153.00;;;31.85;35.47
36502;BME280;25393;46.108;3.390;2022-08-01T09:17:13;98148.16;;;32.09;35.92
36502;BME280;25393;46.108;3.390;2022-08-01T09:19:45;98148.34;;;32.89;35.13
36502;BME280;25393;46.108;3.390;2022-08-01T09:22:18;98156.88;;;33.77;34.58
36502;BME280;25393;46.108;3.390;2022-08-01T09:25:03;98150.34;;;34.60;33.40
36502;BME280;25393;46.108;3.390;2022-08-01T09:27:35;98134.19;;;34.67;31.13
36502;BME280;25393;46.108;3.390;2022-08-01T09:30:14;98146.44;;;33.34;33.62
36502;BME280;25393;46.108;3.390;2022-08-01T09:32:57;98154.94;;;33.77;33.06
36502;BME280;25393;46.108;3.390;2022-08-01T09:35:26;98153.00;;;34.17;32.35
36502;BME280;25393;46.108;3.390;2022-08-01T09:38:16;98156.06;;;34.72;30.68
36502;BME280;25393;46.108;3.390;2022-08-01T09:40:56;98142.16;;;35.29;30.40
36502;BME280;25393;46.108;3.390;2022-08-01T09:43:27;98143.22;;;35.45;30.50
36502;BME280;25393;46.108;3.390;2022-08-01T09:45:59;98148.94;;;35.31;28.83
36502;BME280;25393;46.108;3.390;2022-08-01T09:48:26;98137.84;;;35.74;27.74
36502;BME280;25393;46.108;3.390;2022-08-01T09:50:57;98148.94;;;35.95;28.34
36502;BME280;25393;46.108;3.390;2022-08-01T09:53:46;98148.94;;;35.23;29.75
36502;BME280;25393;46.108;3.390;2022-08-01T09:56:20;98131.91;;;35.38;29.41
36502;BME280;25393;46.108;3.390;2022-08-01T09:58:56;98138.25;;;35.21;28.73
36502;BME280;25393;46.108;3.390;2022-08-01T10:01:27;98140.13;;;34.52;30.35
36502;BME280;25393;46.108;3.390;2022-08-01T10:04:21;98146.06;;;33.80;30.66
36502;BME280;25393;46.108;3.390;2022-08-01T10:06:50;98155.66;;;34.39;31.24
36502;BME280;25393;46.108;3.390;2022-08-01T10:09:28;98133.69;;;35.42;30.05
36502;BME280;25393;46.108;3.390;2022-08-01T10:12:07;98135.03;;;35.83;28.78
36502;BME280;25393;46.108;3.390;2022-08-01T10:14:41;98119.56;;;35.99;28.32
36502;BME280;25393;46.108;3.390;2022-08-01T10:17:18;98124.94;;;36.75;27.86
36502;BME280;25393;46.108;3.390;2022-08-01T10:19:46;98116.47;;;37.33;27.42
36502;BME280;25393;46.108;3.390;2022-08-01T10:22:23;98127.03;;;37.52;25.62
36502;BME280;25393;46.108;3.390;2022-08-01T10:24:54;98127.41;;;37.87;27.08
36502;BME280;25393;46.108;3.390;2022-08-01T10:27:22;98114.38;;;38.36;25.72
36502;BME280;25393;46.108;3.390;2022-08-01T10:30:05;98121.22;;;38.51;25.21
36502;BME280;25393;46.108;3.390;2022-08-01T10:32:51;98115.16;;;39.13;25.18
36502;BME280;25393;46.108;3.390;2022-08-01T10:35:21;98116.97;;;39.64;23.36
36502;BME280;25393;46.108;3.390;2022-08-01T10:38:08;98111.03;;;39.50;23.83
36502;BME280;25393;46.108;3.390;2022-08-01T10:40:39;98117.13;;;39.40;23.63
36502;BME280;25393;46.108;3.390;2022-08-01T10:43:07;98119.41;;;39.38;23.32
36502;BME280;25393;46.108;3.390;2022-08-01T10:45:35;98103.34;;;39.59;23.94
36502;BME280;25393;46.108;3.390;2022-08-01T10:48:16;98108.75;;;39.99;22.85
36502;BME280;25393;46.108;3.390;2022-08-01T10:50:52;98099.56;;;39.79;22.39
36502;BME280;25393;46.108;3.390;2022-08-01T10:55:58;98093.69;;;38.82;24.62
36502;BME280;25393;46.108;3.390;2022-08-01T11:01:27;98092.81;;;39.06;23.81
36502;BME280;25393;46.108;3.390;2022-08-01T11:04:11;98098.84;;;38.56;23.71
36502;BME280;25393;46.108;3.390;2022-08-01T11:06:52;98087.56;;;38.76;23.84
36502;BME280;25393;46.108;3.390;2022-08-01T11:09:40;98090.94;;;38.70;23.76
36502;BME280;25393;46.108;3.390;2022-08-01T11:17:39;98081.16;;;39.00;24.44
36502;BME280;25393;46.108;3.390;2022-08-01T11:28:36;98062.78;;;41.06;22.54
36502;BME280;25393;46.108;3.390;2022-08-01T11:41:39;98061.31;;;41.54;20.98
36502;BME280;25393;46.108;3.390;2022-08-01T11:44:09;98056.00;;;41.26;19.89
36502;BME280;25393;46.108;3.390;2022-08-01T11:47:00;98054.22;;;40.96;21.94
36502;BME280;25393;46.108;3.390;2022-08-01T11:52:29;98059.44;;;40.43;21.55
36502;BME280;25393;46.108;3.390;2022-08-01T11:55:07;98044.28;;;40.95;21.67
36502;BME280;25393;46.108;3.390;2022-08-01T11:57:37;98044.09;;;41.26;21.79
36502;BME280;25393;46.108;3.390;2022-08-01T12:00:12;98051.22;;;41.69;20.64
36502;BME280;25393;46.108;3.390;2022-08-01T12:02:44;98028.78;;;42.07;21.22
36502;BME280;25393;46.108;3.390;2022-08-01T12:05:19;98030.69;;;42.26;19.92
36502;BME280;25393;46.108;3.390;2022-08-01T12:07:51;98037.25;;;42.14;20.05
36502;BME280;25393;46.108;3.390;2022-08-01T12:10:19;98040.28;;;42.06;20.16
36502;BME280;25393;46.108;3.390;2022-08-01T12:12:51;98039.03;;;42.26;19.95
36502;BME280;25393;46.108;3.390;2022-08-01T12:15:19;98017.91;;;42.55;20.16
36502;BME280;25393;46.108;3.390;2022-08-01T12:17:56;98028.88;;;43.04;19.86
36502;BME280;25393;46.108;3.390;2022-08-01T12:20:30;98033.66;;;42.14;19.65
36502;BME280;25393;46.108;3.390;2022-08-01T12:22:59;98022.06;;;40.56;20.76
36502;BME280;25393;46.108;3.390;2022-08-01T12:25:26;98012.25;;;40.24;21.19
36502;BME280;25393;46.108;3.390;2022-08-01T12:27:53;98014.19;;;40.77;21.47
36502;BME280;25393;46.108;3.390;2022-08-01T12:30:22;98011.38;;;41.61;21.24
36502;BME280;25393;46.108;3.390;2022-08-01T12:32:52;98004.09;;;42.06;19.77
36502;BME280;25393;46.108;3.390;2022-08-01T12:35:21;98021.69;;;42.69;18.94
36502;BME280;25393;46.108;3.390;2022-08-01T12:40:24;98008.41;;;42.89;18.68
36502;BME280;25393;46.108;3.390;2022-08-01T12:42:53;98011.09;;;42.78;18.39
36502;BME280;25393;46.108;3.390;2022-08-01T12:45:25;98012.94;;;42.67;19.57
36502;BME280;25393;46.108;3.390;2022-08-01T12:47:53;98013.31;;;42.10;19.87
36502;BME280;25393;46.108;3.390;2022-08-01T12:50:24;98019.56;;;41.09;20.34
36502;BME280;25393;46.108;3.390;2022-08-01T12:53:10;98017.22;;;40.92;21.19
36502;BME280;25393;46.108;3.390;2022-08-01T12:55:50;98015.81;;;41.43;20.39
36502;BME280;25393;46.108;3.390;2022-08-01T12:58:32;98024.03;;;41.59;19.93
36502;BME280;25393;46.108;3.390;2022-08-01T13:01:07;98017.03;;;41.68;20.80
36502;BME280;25393;46.108;3.390;2022-08-01T13:03:35;98024.00;;;42.34;19.83
36502;BME280;25393;46.108;3.390;2022-08-01T13:06:12;98009.34;;;42.37;19.57
36502;BME280;25393;46.108;3.390;2022-08-01T13:08:41;98013.97;;;42.26;19.53
36502;BME280;25393;46.108;3.390;2022-08-01T13:11:10;98007.00;;;42.39;20.05
36502;BME280;25393;46.108;3.390;2022-08-01T13:13:46;98012.38;;;42.58;19.86
36502;BME280;25393;46.108;3.390;2022-08-01T13:16:21;98002.66;;;42.71;19.12
36502;BME280;25393;46.108;3.390;2022-08-01T13:19:04;97995.19;;;42.49;19.44
36502;BME280;25393;46.108;3.390;2022-08-01T13:21:31;97998.72;;;41.90;19.88
36502;BME280;25393;46.108;3.390;2022-08-01T13:24:23;98001.50;;;41.41;20.13
36502;BME280;25393;46.108;3.390;2022-08-01T13:26:58;98007.88;;;41.00;21.16
36502;BME280;25393;46.108;3.390;2022-08-01T13:29:35;98008.69;;;40.62;20.31
36502;BME280;25393;46.108;3.390;2022-08-01T13:32:15;98001.03;;;40.74;21.17
36502;BME280;25393;46.108;3.390;2022-08-01T13:35:03;98010.31;;;41.24;20.28
36502;BME280;25393;46.108;3.390;2022-08-01T13:37:31;98016.59;;;41.89;20.98
36502;BME280;25393;46.108;3.390;2022-08-01T13:39:57;98024.13;;;42.15;19.65
36502;BME280;25393;46.108;3.390;2022-08-01T13:42:24;98006.94;;;42.36;20.30
36502;BME280;25393;46.108;3.390;2022-08-01T13:44:51;98005.63;;;42.59;19.57
36502;BME280;25393;46.108;3.390;2022-08-01T13:47:19;98006.69;;;42.77;20.24
36502;BME280;25393;46.108;3.390;2022-08-01T13:49:57;98011.16;;;43.22;19.33
36502;BME280;25393;46.108;3.390;2022-08-01T13:52:27;98008.25;;;43.49;18.52
36502;BME280;25393;46.108;3.390;2022-08-01T13:54:54;98009.13;;;43.63;17.15
36502;BME280;25393;46.108;3.390;2022-08-01T13:57:21;97995.91;;;43.53;18.42
36502;BME280;25393;46.108;3.390;2022-08-01T13:59:48;97989.16;;;43.54;18.25
36502;BME280;25393;46.108;3.390;2022-08-01T14:02:15;97992.81;;;43.21;18.33
36502;BME280;25393;46.108;3.390;2022-08-01T14:04:41;98008.47;;;43.33;18.44
36502;BME280;25393;46.108;3.390;2022-08-01T14:07:08;98003.34;;;43.39;18.70